createdAt,value
2022-09-15T00:01:00.905Z,99814.28
2022-09-15T00:03:27.277Z,99815.13
2022-09-15T00:05:53.785Z,99809.91
2022-09-15T00:08:20.096Z,99819.84
2022-09-15T00:10:46.923Z,99825.34
2022-09-15T00:13:13.390Z,99821.81
2022-09-15T00:15:39.692Z,99821.16
2022-09-15T00:18:07.315Z,99824.81
2022-09-15T00:20:33.637Z,99820.28
2022-09-15T00:22:59.970Z,99820.28
2022-09-15T00:25:26.307Z,99823.97
2022-09-15T00:27:52.628Z,99824.16
2022-09-15T00:30:19.169Z,99824.97
2022-09-15T00:32:45.472Z,99832.22
2022-09-15T00:35:13.056Z,99841.25
2022-09-15T00:37:39.392Z,99839.56
2022-09-15T00:40:06.322Z,99836.22
2022-09-15T00:42:32.687Z,99844.09
2022-09-15T00:45:00.171Z,99840.72
2022-09-15T00:47:28.706Z,99839.84
2022-09-15T00:50:02.042Z,99832.78
2022-09-15T00:52:31.976Z,99841.03
2022-09-15T00:55:00.274Z,99849.09
2022-09-15T00:57:28.390Z,99850.06
2022-09-15T00:59:56.638Z,99847.38
2022-09-15T01:02:24.449Z,99845.69
2022-09-15T01:04:56.008Z,99854.59
2022-09-15T01:07:26.693Z,99847.53
2022-09-15T01:09:56.793Z,99844.84
2022-09-15T01:12:24.224Z,99849.53
2022-09-15T01:14:50.573Z,99848.53
2022-09-15T01:17:23.099Z,99847.84
2022-09-15T01:20:00.669Z,99849.69
2022-09-15T01:22:33.242Z,99853.53
2022-09-15T01:25:06.388Z,99851.97
2022-09-15T01:27:47.578Z,99845.94
2022-09-15T01:30:15.957Z,99849.75
2022-09-15T01:32:57.219Z,99851.59
2022-09-15T01:35:27.500Z,99845.38
2022-09-15T01:37:57.540Z,99839.16
2022-09-15T01:40:25.299Z,99850.75
2022-09-15T01:42:53.135Z,99849.75
2022-09-15T01:45:23.420Z,99851.59
2022-09-15T01:47:50.768Z,99847.06
2022-09-15T01:50:20.249Z,99847.91
2022-09-15T01:52:48.452Z,99852.44
2022-09-15T01:55:17.891Z,99846.22
2022-09-15T01:57:44.284Z,99845.38
2022-09-15T02:00:11.148Z,99852.44
2022-09-15T02:02:40.932Z,99847.06
2022-09-15T02:05:10.206Z,99846.22
2022-09-15T02:07:38.819Z,99852.59
2022-09-15T02:10:09.160Z,99853.44
2022-09-15T02:12:39.441Z,99844.53
2022-09-15T02:15:07.135Z,99844.53
2022-09-15T02:17:34.135Z,99838.31
2022-09-15T02:20:07.636Z,99834.63
2022-09-15T02:22:36.157Z,99841.69
2022-09-15T02:25:04.797Z,99838.84
2022-09-15T02:27:35.213Z,99836.84
2022-09-15T02:30:03.282Z,99834.34
2022-09-15T02:32:30.835Z,99834.34
2022-09-15T02:34:59.028Z,99839.84
2022-09-15T02:37:27.328Z,99841.00
2022-09-15T02:39:55.334Z,99846.53
2022-09-15T02:42:23.545Z,99834.63
2022-09-15T02:44:49.951Z,99836.63
2022-09-15T02:47:16.402Z,99844.69
2022-09-15T02:49:42.815Z,99838.31
2022-09-15T02:52:09.326Z,99839.47
2022-09-15T02:54:36.968Z,99847.38
2022-09-15T02:57:03.362Z,99845.53
2022-09-15T02:59:29.730Z,99853.44
2022-09-15T03:01:56.188Z,99845.69
2022-09-15T03:04:22.541Z,99850.34
2022-09-15T03:06:48.967Z,99850.66
2022-09-15T03:09:15.416Z,99846.84
2022-09-15T03:11:43.109Z,99847.53
2022-09-15T03:14:09.509Z,99845.81
2022-09-15T03:16:35.877Z,99849.69
2022-09-15T03:19:02.443Z,99853.22
2022-09-15T03:21:29.115Z,99851.66
2022-09-15T03:23:55.523Z,99857.75
2022-09-15T03:26:21.841Z,99860.44
2022-09-15T03:28:49.441Z,99866.78
2022-09-15T03:31:16.080Z,99866.78
2022-09-15T03:33:42.419Z,99863.25
2022-09-15T03:36:09.032Z,99868.50
2022-09-15T03:38:35.402Z,99870.34
2022-09-15T03:41:03.035Z,99872.16
2022-09-15T03:43:30.186Z,99874.16
2022-09-15T03:45:57.978Z,99872.47
2022-09-15T03:48:24.820Z,99876.84
2022-09-15T03:50:51.622Z,99882.91
2022-09-15T03:53:18.340Z,99876.69
2022-09-15T03:55:44.785Z,99874.00
2022-09-15T03:58:11.333Z,99872.47
2022-09-15T04:00:38.195Z,99876.97
2022-09-15T04:03:06.138Z,99884.19
2022-09-15T04:05:32.499Z,99881.38
2022-09-15T04:07:59.143Z,99888.97
2022-09-15T04:10:25.517Z,99887.13
2022-09-15T04:12:52.195Z,99889.16
2022-09-15T04:15:18.577Z,99885.38
2022-09-15T04:17:44.930Z,99878.25
2022-09-15T04:20:13.110Z,99876.47
2022-09-15T04:22:39.450Z,99882.81
2022-09-15T04:25:06.291Z,99884.84
2022-09-15T04:27:32.606Z,99889.50
2022-09-15T04:29:58.931Z,99888.50
2022-09-15T04:32:25.266Z,99889.94
2022-09-15T04:34:51.556Z,99893.47
2022-09-15T04:37:19.170Z,99893.47
2022-09-15T04:39:45.535Z,99894.41
2022-09-15T04:42:11.870Z,99888.19
2022-09-15T04:44:38.371Z,99901.63
2022-09-15T04:47:04.749Z,99901.06
2022-09-15T04:49:31.096Z,99884.31
2022-09-15T04:51:57.388Z,99881.34
2022-09-15T04:54:25.260Z,99876.41
2022-09-15T04:56:51.551Z,99874.25
2022-09-15T04:59:18.885Z,99878.25
2022-09-15T05:01:45.677Z,99883.31
2022-09-15T05:04:12.383Z,99885.31
2022-09-15T05:06:39.024Z,99881.19
2022-09-15T05:09:10.290Z,99888.41
2022-09-15T05:11:38.172Z,99902.13
2022-09-15T05:14:04.630Z,99883.63
2022-09-15T05:16:31.206Z,99892.88
2022-09-15T05:18:58.293Z,99895.06
2022-09-15T05:21:24.656Z,99901.53
2022-09-15T05:23:51.267Z,99898.41
2022-09-15T05:26:18.509Z,99893.03
2022-09-15T05:28:46.170Z,99897.56
2022-09-15T05:31:15.591Z,99894.03
2022-09-15T05:33:42.003Z,99894.69
2022-09-15T05:36:08.356Z,99904.78
2022-09-15T05:38:34.663Z,99904.19
2022-09-15T05:41:02.465Z,99908.69
2022-09-15T05:43:30.108Z,99910.22
2022-09-15T05:45:57.735Z,99912.38
2022-09-15T05:48:25.129Z,99920.31
2022-09-15T05:50:52.123Z,99927.47
2022-09-15T05:53:19.224Z,99924.81
2022-09-15T05:55:45.580Z,99936.56
2022-09-15T05:58:11.950Z,99931.88
2022-09-15T06:00:38.297Z,99933.72
2022-09-15T06:03:05.957Z,99935.53
2022-09-15T06:05:32.311Z,99945.63
2022-09-15T06:07:58.611Z,99949.97
2022-09-15T06:10:25.006Z,99949.31
2022-09-15T06:12:52.716Z,99946.47
2022-09-15T06:15:19.060Z,99958.34
2022-09-15T06:17:45.436Z,99958.34
2022-09-15T06:20:15.428Z,99959.03
2022-09-15T06:22:41.781Z,99968.50
2022-09-15T06:25:08.474Z,99973.88
2022-09-15T06:27:34.784Z,99978.53
2022-09-15T06:30:01.103Z,99979.41
2022-09-15T06:32:27.427Z,99976.84
2022-09-15T06:34:53.778Z,99984.06
2022-09-15T06:37:21.397Z,99979.53
2022-09-15T06:39:47.788Z,99982.09
2022-09-15T06:42:14.136Z,99992.91
2022-09-15T06:44:40.493Z,99990.38
2022-09-15T06:47:06.946Z,99991.22
2022-09-15T06:49:33.262Z,100003.81
2022-09-15T06:51:59.803Z,100000.88
2022-09-15T06:54:27.473Z,99997.22
2022-09-15T06:56:53.801Z,100008.94
2022-09-15T06:59:20.116Z,100000.59
2022-09-15T07:01:46.568Z,100000.88
2022-09-15T07:04:12.948Z,99998.47
2022-09-15T07:06:39.528Z,100004.00
2022-09-15T07:09:06.050Z,100010.03
2022-09-15T07:11:34.029Z,100010.78
2022-09-15T07:14:00.349Z,100005.69
2022-09-15T07:16:26.758Z,100009.34
2022-09-15T07:18:54.803Z,100018.09
2022-09-15T07:21:21.225Z,100014.56
2022-09-15T07:23:48.024Z,100016.16
2022-09-15T07:26:15.694Z,100018.00
2022-09-15T07:28:44.359Z,100023.22
2022-09-15T07:31:11.731Z,100021.38
2022-09-15T07:33:38.523Z,100023.06
2022-09-15T07:36:05.734Z,100026.63
2022-09-15T07:38:32.195Z,100023.78
2022-09-15T07:41:02.609Z,100035.09
2022-09-15T07:43:28.916Z,100025.91
2022-09-15T07:45:58.776Z,100022.78
2022-09-15T07:48:26.571Z,100030.84
2022-09-15T07:50:53.042Z,100023.50
2022-09-15T07:53:19.446Z,100030.84
2022-09-15T07:55:45.999Z,100025.34
2022-09-15T07:58:12.439Z,100028.44
2022-09-15T08:00:38.987Z,100032.41
2022-09-15T08:03:06.740Z,100034.53
2022-09-15T08:05:37.759Z,100038.63
2022-09-15T08:08:05.844Z,100044.97
2022-09-15T08:10:32.196Z,100049.63
2022-09-15T08:12:58.558Z,100053.72
2022-09-15T08:15:24.946Z,100058.97
2022-09-15T08:17:51.348Z,100061.78
2022-09-15T08:20:19.402Z,100059.38
2022-09-15T08:22:45.723Z,100067.28
2022-09-15T08:25:12.064Z,100070.69
2022-09-15T08:27:38.846Z,100077.88
2022-09-15T08:30:06.309Z,100075.19
2022-09-15T08:32:33.048Z,100073.50
2022-09-15T08:34:59.367Z,100077.59
2022-09-15T08:37:27.013Z,100078.03
2022-09-15T08:39:53.387Z,100085.66
2022-09-15T08:42:20.289Z,100086.09
2022-09-15T08:44:49.061Z,100092.72
2022-09-15T08:47:17.283Z,100089.34
2022-09-15T08:49:51.939Z,100093.25
2022-09-15T08:52:21.243Z,100101.78
2022-09-15T08:54:50.709Z,100104.00
2022-09-15T08:57:20.142Z,100106.00
2022-09-15T08:59:46.685Z,100102.78
2022-09-15T09:02:26.442Z,100107.72
2022-09-15T09:04:57.878Z,100107.44
2022-09-15T09:07:33.820Z,100106.16
2022-09-15T09:10:06.492Z,100101.34
2022-09-15T09:12:38.983Z,100109.97
2022-09-15T09:15:15.473Z,100117.03
2022-09-15T09:17:51.203Z,100116.91
2022-09-15T09:20:25.679Z,100111.81
2022-09-15T09:22:53.972Z,100113.38
2022-09-15T09:25:27.717Z,100104.44
2022-09-15T09:27:55.488Z,100111.81
2022-09-15T09:30:22.649Z,100110.84
2022-09-15T09:32:52.446Z,100112.38
2022-09-15T09:35:23.234Z,100104.03
2022-09-15T09:37:51.278Z,100107.13
2022-09-15T09:40:18.309Z,100107.44
2022-09-15T09:42:46.019Z,100105.88
2022-09-15T09:45:13.201Z,100111.97
2022-09-15T09:47:40.144Z,100118.75
2022-09-15T09:50:30.898Z,100122.69
2022-09-15T09:52:57.348Z,100114.19
2022-09-15T09:55:24.488Z,100116.03
2022-09-15T09:57:52.391Z,100114.50
2022-09-15T10:00:30.584Z,100118.69
2022-09-15T10:02:57.041Z,100121.56
2022-09-15T10:05:23.496Z,100124.38
2022-09-15T10:07:49.819Z,100135.97
2022-09-15T10:10:20.587Z,100132.28
2022-09-15T10:12:47.697Z,100121.97
2022-09-15T10:15:22.448Z,100127.47
2022-09-15T10:17:49.451Z,100125.63
2022-09-15T10:20:21.501Z,100118.41
2022-09-15T10:22:48.022Z,100126.19
2022-09-15T10:25:44.297Z,100130.72
2022-09-15T10:28:16.922Z,100135.94
2022-09-15T10:30:57.940Z,100133.97
2022-09-15T10:33:25.415Z,100124.91
2022-09-15T10:35:53.085Z,100123.06
2022-09-15T10:38:25.912Z,100130.56
2022-09-15T10:40:55.897Z,100122.94
2022-09-15T10:43:28.537Z,100126.59
2022-09-15T10:46:01.515Z,100127.41
2022-09-15T10:48:35.941Z,100131.09
2022-09-15T10:51:09.636Z,100129.25
2022-09-15T10:53:46.514Z,100130.97
2022-09-15T10:56:21.395Z,100134.59
2022-09-15T10:58:53.643Z,100144.81
2022-09-15T11:01:30.649Z,100140.13
2022-09-15T11:04:07.362Z,100143.66
2022-09-15T11:06:35.141Z,100141.72
2022-09-15T11:09:06.876Z,100146.56
2022-09-15T11:11:40.303Z,100143.16
2022-09-15T11:14:18.150Z,100143.88
2022-09-15T11:16:51.090Z,100145.84
2022-09-15T11:19:28.689Z,100139.91
2022-09-15T11:21:57.994Z,100149.25
2022-09-15T11:24:29.703Z,100137.66
2022-09-15T11:26:57.766Z,100135.97
2022-09-15T11:29:26.893Z,100143.19
2022-09-15T11:31:57.112Z,100148.00
2022-09-15T11:34:25.980Z,100142.63
2022-09-15T11:36:56.092Z,100144.31
2022-09-15T11:39:23.507Z,100140.91
2022-09-15T11:41:52.789Z,100143.03
2022-09-15T11:44:22.461Z,100136.38
2022-09-15T11:46:54.915Z,100148.84
2022-09-15T11:49:24.839Z,100154.06
2022-09-15T11:51:54.268Z,100143.88
2022-09-15T11:54:22.359Z,100145.69
2022-09-15T11:56:49.280Z,100148.78
2022-09-15T11:59:20.724Z,100159.53
2022-09-15T12:01:50.769Z,100166.19
2022-09-15T12:04:19.839Z,100153.88
2022-09-15T12:06:50.036Z,100159.84
2022-09-15T12:09:17.425Z,100164.50
2022-09-15T12:11:45.128Z,100162.38
2022-09-15T12:14:13.894Z,100150.09
2022-09-15T12:16:40.532Z,100164.22
2022-09-15T12:19:11.134Z,100156.28
2022-09-15T12:21:40.772Z,100158.00
2022-09-15T12:24:13.043Z,100156.00
2022-09-15T12:26:40.188Z,100154.03
2022-09-15T12:29:21.382Z,100164.50
2022-09-15T12:31:47.731Z,100163.22
2022-09-15T12:34:29.001Z,100170.41
2022-09-15T12:37:06.425Z,100164.22
2022-09-15T12:39:39.868Z,100162.81
2022-09-15T12:42:12.496Z,100156.28
2022-09-15T12:44:43.049Z,100158.41
2022-09-15T12:47:18.453Z,100167.88
2022-09-15T12:49:47.264Z,100158.13
2022-09-15T12:52:13.712Z,100163.22
2022-09-15T12:54:43.023Z,100159.41
2022-09-15T12:57:18.958Z,100160.53
2022-09-15T12:59:45.286Z,100155.84
2022-09-15T13:02:26.594Z,100171.28
2022-09-15T13:04:53.951Z,100168.28
2022-09-15T13:07:31.582Z,100172.66
2022-09-15T13:10:00.504Z,100166.41
2022-09-15T13:12:33.610Z,100166.97
2022-09-15T13:15:02.018Z,100166.69
2022-09-15T13:17:28.861Z,100167.78
2022-09-15T13:19:58.392Z,100170.94
2022-09-15T13:22:28.152Z,100175.69
2022-09-15T13:25:01.396Z,100185.75
2022-09-15T13:27:34.394Z,100172.47
2022-09-15T13:30:03.713Z,100175.47
2022-09-15T13:32:35.438Z,100168.66
2022-09-15T13:35:21.251Z,100172.75
2022-09-15T13:38:08.217Z,100176.19
2022-09-15T13:40:55.913Z,100174.91
2022-09-15T13:43:38.702Z,100170.81
2022-09-15T13:46:13.045Z,100168.97
2022-09-15T13:48:45.811Z,100165.44
2022-09-15T13:51:15.351Z,100169.69
2022-09-15T13:53:44.483Z,100159.06
2022-09-15T13:56:19.673Z,100165.28
2022-09-15T13:58:59.190Z,100170.25
2022-09-15T14:01:30.197Z,100173.63
2022-09-15T14:03:57.748Z,100165.56
2022-09-15T14:06:26.178Z,100175.34
2022-09-15T14:08:53.938Z,100167.84
2022-09-15T14:11:23.409Z,100162.84
2022-09-15T14:13:51.472Z,100169.63
2022-09-15T14:16:21.198Z,100171.94
2022-09-15T14:18:47.818Z,100173.31
2022-09-15T14:21:16.346Z,100174.75
2022-09-15T14:23:45.068Z,100166.69
2022-09-15T14:26:14.679Z,100172.59
2022-09-15T14:28:41.335Z,100170.91
2022-09-15T14:31:10.417Z,100174.34
2022-09-15T14:33:39.790Z,100179.84
2022-09-15T14:36:14.370Z,100176.47
2022-09-15T14:38:40.985Z,100169.09
2022-09-15T14:41:18.202Z,100175.03
2022-09-15T14:43:44.864Z,100169.53
2022-09-15T14:46:13.188Z,100172.91
2022-09-15T14:48:39.565Z,100168.06
2022-09-15T14:51:11.278Z,100168.78
2022-09-15T14:53:38.836Z,100174.16
2022-09-15T14:56:08.377Z,100179.13
2022-09-15T14:58:36.047Z,100177.28
2022-09-15T15:01:04.561Z,100176.59
2022-09-15T15:03:37.533Z,100176.13
2022-09-15T15:06:28.545Z,100182.50
2022-09-15T15:08:56.948Z,100170.91
2022-09-15T15:11:23.619Z,100179.69
2022-09-15T15:13:51.288Z,100179.53
2022-09-15T15:16:20.177Z,100176.84
2022-09-15T15:18:47.831Z,100182.38
2022-09-15T15:21:29.022Z,100186.50
2022-09-15T15:23:55.456Z,100189.56
2022-09-15T15:26:24.205Z,100193.97
2022-09-15T15:28:50.527Z,100182.50
2022-09-15T15:31:18.703Z,100190.59
2022-09-15T15:33:45.988Z,100187.59
2022-09-15T15:36:13.629Z,100191.44
2022-09-15T15:38:46.361Z,100186.22
2022-09-15T15:41:19.034Z,100196.25
2022-09-15T15:43:54.887Z,100190.19
2022-09-15T15:46:30.910Z,100187.91
2022-09-15T15:48:57.328Z,100185.09
2022-09-15T15:51:24.949Z,100180.00
2022-09-15T15:53:51.320Z,100181.28
2022-09-15T15:56:23.175Z,100184.25
2022-09-15T15:58:49.503Z,100179.19
2022-09-15T16:01:15.893Z,100189.94
2022-09-15T16:03:42.263Z,100177.78
2022-09-15T16:06:09.784Z,100180.03
2022-09-15T16:08:38.674Z,100185.13
2022-09-15T16:11:05.763Z,100177.78
2022-09-15T16:13:32.207Z,100193.44
2022-09-15T16:15:59.547Z,100188.66
2022-09-15T16:18:26.290Z,100192.63
2022-09-15T16:20:52.783Z,100192.22
2022-09-15T16:23:20.247Z,100193.44
2022-09-15T16:25:49.361Z,100191.59
2022-09-15T16:28:15.857Z,100196.16
2022-09-15T16:30:42.391Z,100197.59
2022-09-15T16:33:12.399Z,100194.91
2022-09-15T16:35:39.965Z,100193.63
2022-09-15T16:38:06.710Z,100199.56
2022-09-15T16:40:33.171Z,100195.63
2022-09-15T16:43:01.119Z,100203.97
2022-09-15T16:45:35.166Z,100201.28
2022-09-15T16:48:04.682Z,100200.28
2022-09-15T16:50:31.026Z,100208.34
2022-09-15T16:52:57.869Z,100206.50
2022-09-15T16:55:30.431Z,100209.19
2022-09-15T16:57:57.088Z,100202.81
2022-09-15T17:00:24.767Z,100203.81
2022-09-15T17:02:51.191Z,100205.66
2022-09-15T17:05:19.866Z,100205.50
2022-09-15T17:07:46.281Z,100209.19
2022-09-15T17:10:12.627Z,100210.03
2022-09-15T17:12:39.011Z,100216.22
2022-09-15T17:15:15.299Z,100211.16
2022-09-15T17:17:43.040Z,100215.69
2022-09-15T17:20:09.492Z,100209.47
2022-09-15T17:22:35.814Z,100213.44
2022-09-15T17:25:02.306Z,100217.78
2022-09-15T17:27:28.654Z,100217.78
2022-09-15T17:29:54.990Z,100218.63
2022-09-15T17:32:21.279Z,100218.63
2022-09-15T17:34:48.949Z,100231.38
2022-09-15T17:37:15.272Z,100227.13
2022-09-15T17:39:41.563Z,100224.59
2022-09-15T17:42:08.653Z,100231.50
2022-09-15T17:44:37.596Z,100229.53
2022-09-15T17:47:04.229Z,100230.53
2022-09-15T17:49:30.631Z,100231.50
2022-09-15T17:51:58.233Z,100236.03
2022-09-15T17:54:24.593Z,100241.41
2022-09-15T17:56:51.008Z,100239.84
2022-09-15T17:59:17.365Z,100240.00
2022-09-15T18:01:43.977Z,100246.22
2022-09-15T18:04:11.134Z,100249.75
2022-09-15T18:06:38.290Z,100243.69
2022-09-15T18:09:07.841Z,100251.19
2022-09-15T18:11:34.184Z,100246.66
2022-09-15T18:14:00.495Z,100252.28
2022-09-15T18:16:26.824Z,100255.81
2022-09-15T18:18:53.176Z,100256.09
2022-09-15T18:21:22.980Z,100272.22
2022-09-15T18:23:49.296Z,100257.09
2022-09-15T18:26:16.885Z,100255.53
2022-09-15T18:28:43.961Z,100263.75
2022-09-15T18:31:12.520Z,100273.50
2022-09-15T18:33:38.855Z,100275.59
2022-09-15T18:36:06.489Z,100279.13
2022-09-15T18:38:33.151Z,100273.06
2022-09-15T18:40:59.521Z,100271.06
2022-09-15T18:43:27.476Z,100270.22
2022-09-15T18:45:57.363Z,100274.75
2022-09-15T18:48:23.786Z,100281.13
2022-09-15T18:50:50.096Z,100281.25
2022-09-15T18:53:16.537Z,100274.88
2022-09-15T18:55:42.871Z,100278.72
2022-09-15T18:58:09.218Z,100279.56
2022-09-15T19:00:37.091Z,100283.09
2022-09-15T19:03:04.568Z,100277.88
2022-09-15T19:05:31.167Z,100285.03
2022-09-15T19:07:57.554Z,100286.03
2022-09-15T19:10:24.537Z,100280.81
2022-09-15T19:12:50.888Z,100289.72
2022-09-15T19:15:17.221Z,100283.50
2022-09-15T19:17:45.021Z,100282.66
2022-09-15T19:20:12.786Z,100290.72
2022-09-15T19:22:39.126Z,100292.69
2022-09-15T19:25:06.197Z,100291.00
2022-09-15T19:27:32.540Z,100295.38
2022-09-15T19:29:58.839Z,100297.28
2022-09-15T19:32:25.261Z,100298.06
2022-09-15T19:34:52.895Z,100298.28
2022-09-15T19:37:20.216Z,100305.25
2022-09-15T19:39:46.662Z,100300.13
2022-09-15T19:42:13.438Z,100302.66
2022-09-15T19:44:40.947Z,100303.56
2022-09-15T19:47:07.340Z,100302.81
2022-09-15T19:49:33.784Z,100308.19
2022-09-15T19:52:01.429Z,100301.81
2022-09-15T19:54:28.894Z,100311.88
2022-09-15T19:56:55.961Z,100307.47
2022-09-15T19:59:25.300Z,100309.19
2022-09-15T20:01:53.981Z,100308.34
2022-09-15T20:04:20.461Z,100308.34
2022-09-15T20:06:46.781Z,100313.81
2022-09-15T20:09:15.053Z,100313.72
2022-09-15T20:11:41.487Z,100312.84
2022-09-15T20:14:07.907Z,100323.88
2022-09-15T20:16:34.411Z,100329.25
2022-09-15T20:19:01.186Z,100334.03
2022-09-15T20:21:48.517Z,100334.59
2022-09-15T20:24:17.174Z,100332.31
2022-09-15T20:26:44.400Z,100323.28
2022-09-15T20:29:11.903Z,100331.19
2022-09-15T20:31:39.452Z,100331.34
2022-09-15T20:34:06.931Z,100337.69
2022-09-15T20:36:35.341Z,100343.78
2022-09-15T20:39:03.670Z,100336.00
2022-09-15T20:41:32.530Z,100339.41
2022-09-15T20:44:00.205Z,100343.88
2022-09-15T20:46:27.838Z,100353.78
2022-09-15T20:48:55.111Z,100356.34
2022-09-15T20:51:23.231Z,100353.78
2022-09-15T20:53:51.790Z,100353.78
2022-09-15T20:56:20.199Z,100344.16
2022-09-15T20:58:49.120Z,100342.47
2022-09-15T21:01:17.564Z,100346.00
2022-09-15T21:03:45.764Z,100354.91
2022-09-15T21:06:13.818Z,100347.00
2022-09-15T21:08:41.363Z,100352.34
2022-09-15T21:11:09.231Z,100355.19
2022-09-15T21:13:37.914Z,100353.22
2022-09-15T21:16:07.424Z,100352.34
2022-09-15T21:18:35.304Z,100349.09
2022-09-15T21:21:03.628Z,100356.56
2022-09-15T21:23:32.936Z,100359.84
2022-09-15T21:26:02.083Z,100357.41
2022-09-15T21:28:29.901Z,100356.84
2022-09-15T21:31:02.245Z,100362.19
2022-09-15T21:33:31.383Z,100354.88
2022-09-15T21:36:03.087Z,100361.94
2022-09-15T21:38:30.333Z,100351.47
2022-09-15T21:40:57.796Z,100355.16
2022-09-15T21:43:28.968Z,100359.09
2022-09-15T21:45:56.302Z,100347.78
2022-09-15T21:48:23.843Z,100355.72
2022-09-15T21:50:53.362Z,100357.56
2022-09-15T21:53:20.485Z,100354.88
2022-09-15T21:55:48.049Z,100349.78
2022-09-15T21:58:15.448Z,100352.31
2022-09-15T22:00:42.860Z,100352.72
2022-09-15T22:03:10.092Z,100348.19
2022-09-15T22:05:39.019Z,100351.72
2022-09-15T22:08:07.781Z,100356.66
2022-09-15T22:10:34.884Z,100353.72
2022-09-15T22:13:02.417Z,100356.53
2022-09-15T22:15:29.799Z,100354.84
2022-09-15T22:17:56.873Z,100347.78
2022-09-15T22:20:24.430Z,100352.00
2022-09-15T22:22:51.686Z,100352.72
2022-09-15T22:25:22.062Z,100350.19
2022-09-15T22:27:49.898Z,100359.09
2022-09-15T22:30:17.319Z,100358.63
2022-09-15T22:32:45.058Z,100357.09
2022-09-15T22:35:12.261Z,100361.56
2022-09-15T22:37:39.685Z,100363.28
2022-09-15T22:40:07.208Z,100370.19
2022-09-15T22:42:35.695Z,100356.47
2022-09-15T22:45:02.909Z,100362.44
2022-09-15T22:47:30.027Z,100362.72
2022-09-15T22:49:56.569Z,100355.75
2022-09-15T22:52:23.715Z,100357.72
2022-09-15T22:54:51.090Z,100360.13
2022-09-15T22:57:18.671Z,100357.34
2022-09-15T22:59:47.773Z,100366.09
2022-09-15T23:02:15.198Z,100367.19
2022-09-15T23:04:42.615Z,100365.66
2022-09-15T23:07:09.823Z,100359.56
2022-09-15T23:09:36.897Z,100358.97
2022-09-15T23:12:04.211Z,100362.75
2022-09-15T23:14:31.258Z,100353.88
2022-09-15T23:16:59.820Z,100359.25
2022-09-15T23:19:29.757Z,100362.66
2022-09-15T23:21:57.135Z,100364.88
2022-09-15T23:24:24.292Z,100368.28
2022-09-15T23:26:51.342Z,100365.75
2022-09-15T23:29:18.579Z,100354.88
2022-09-15T23:31:45.791Z,100353.03
2022-09-15T23:34:14.707Z,100355.59
2022-09-15T23:36:42.163Z,100350.50
2022-09-15T23:39:09.697Z,100364.00
2022-09-15T23:41:37.322Z,100363.91
2022-09-15T23:44:05.049Z,100363.16
2022-09-15T23:46:32.936Z,100363.16
2022-09-15T23:49:00.606Z,100362.06
2022-09-15T23:51:29.800Z,100360.38
2022-09-15T23:53:56.362Z,100352.44
2022-09-15T23:56:22.696Z,100349.91
2022-09-15T23:58:49.084Z,100341.88
